sensor_id;sensor_type;location;lat;lon;timestamp;pressure;altitude;pressure_sealevel;temperature;humidity
54546;BME280;40444;45.184;9.850;2023-01-28T00:00:08;100978.66;;;0.70;100.00
54546;BME280;40444;45.184;9.850;2023-01-28T00:02:36;100975.94;;;0.71;100.00
54546;BME280;40444;45.184;9.850;2023-01-28T00:05:05;100973.50;;;0.67;100.00
54546;BME280;40444;45.184;9.850;2023-01-28T00:07:34;100974.19;;;0.72;100.00
54546;BME280;40444;45.184;9.850;2023-01-28T00:10:03;100980.13;;;0.77;100.00
54546;BME280;40444;45.184;9.850;2023-01-28T00:12:32;100969.50;;;0.79;100.00
54546;BME280;40444;45.184;9.850;2023-01-28T00:15:00;100978.22;;;0.81;100.00
54546;BME280;40444;45.184;9.850;2023-01-28T00:17:28;100982.56;;;0.82;100.00
54546;BME280;40444;45.184;9.850;2023-01-28T00:19:57;100972.03;;;0.82;100.00
54546;BME280;40444;45.184;9.850;2023-01-28T00:22:26;100987.69;;;0.85;100.00
54546;BME280;40444;45.184;9.850;2023-01-28T00:24:54;100978.03;;;0.85;100.00
54546;BME280;40444;45.184;9.850;2023-01-28T00:27:23;100980.59;;;0.87;100.00
54546;BME280;40444;45.184;9.850;2023-01-28T00:29:51;100983.22;;;0.87;100.00
54546;BME280;40444;45.184;9.850;2023-01-28T00:32:20;100981.53;;;0.86;100.00
54546;BME280;40444;45.184;9.850;2023-01-28T00:34:52;100980.66;;;0.85;100.00
54546;BME280;40444;45.184;9.850;2023-01-28T00:37:21;100986.72;;;0.87;100.00
54546;BME280;40444;45.184;9.850;2023-01-28T00:39:49;100980.59;;;0.87;100.00
54546;BME280;40444;45.184;9.850;2023-01-28T00:42:18;100979.66;;;0.88;100.00
54546;BME280;40444;45.184;9.850;2023-01-28T00:44:47;100986.72;;;0.87;100.00
54546;BME280;40444;45.184;9.850;2023-01-28T00:47:15;100976.16;;;0.87;100.00
54546;BME280;40444;45.184;9.850;2023-01-28T00:49:45;100974.50;;;0.85;100.00
54546;BME280;40444;45.184;9.850;2023-01-28T00:52:13;100970.25;;;0.82;100.00
54546;BME280;40444;45.184;9.850;2023-01-28T00:54:42;100972.03;;;0.82;100.00
54546;BME280;40444;45.184;9.850;2023-01-28T00:57:10;100972.94;;;0.81;100.00
54546;BME280;40444;45.184;9.850;2023-01-28T00:59:39;100969.44;;;0.80;100.00
54546;BME280;40444;45.184;9.850;2023-01-28T01:02:08;100974.69;;;0.80;100.00
54546;BME280;40444;45.184;9.850;2023-01-28T01:04:40;100986.13;;;0.81;100.00
54546;BME280;40444;45.184;9.850;2023-01-28T01:07:08;100993.97;;;0.82;100.00
54546;BME280;40444;45.184;9.850;2023-01-28T01:09:37;100986.00;;;0.84;100.00
54546;BME280;40444;45.184;9.850;2023-01-28T01:12:05;100993.78;;;0.87;100.00
54546;BME280;40444;45.184;9.850;2023-01-28T01:14:34;100991.91;;;0.89;100.00
54546;BME280;40444;45.184;9.850;2023-01-28T01:17:03;100995.41;;;0.89;100.00
54546;BME280;40444;45.184;9.850;2023-01-28T01:19:31;101004.25;;;0.88;100.00
54546;BME280;40444;45.184;9.850;2023-01-28T01:22:00;101011.25;;;0.89;100.00
54546;BME280;40444;45.184;9.850;2023-01-28T01:24:29;101008.56;;;0.91;100.00
54546;BME280;40444;45.184;9.850;2023-01-28T01:27:01;101011.19;;;0.91;100.00
54546;BME280;40444;45.184;9.850;2023-01-28T01:29:29;101011.19;;;0.91;100.00
54546;BME280;40444;45.184;9.850;2023-01-28T01:31:58;101018.25;;;0.90;100.00
54546;BME280;40444;45.184;9.850;2023-01-28T01:34:27;101020.91;;;0.90;100.00
54546;BME280;40444;45.184;9.850;2023-01-28T01:36:57;101023.56;;;0.89;100.00
54546;BME280;40444;45.184;9.850;2023-01-28T01:39:26;101027.97;;;0.90;100.00
54546;BME280;40444;45.184;9.850;2023-01-28T01:41:54;101027.03;;;0.91;100.00
54546;BME280;40444;45.184;9.850;2023-01-28T01:47:16;101020.75;;;0.93;100.00
54546;BME280;40444;45.184;9.850;2023-01-28T01:49:46;101027.75;;;0.94;100.00
54546;BME280;40444;45.184;9.850;2023-01-28T01:52:18;101022.41;;;0.96;100.00
54546;BME280;40444;45.184;9.850;2023-01-28T01:54:51;101028.59;;;0.95;100.00
54546;BME280;40444;45.184;9.850;2023-01-28T01:57:26;101027.81;;;0.93;100.00
54546;BME280;40444;45.184;9.850;2023-01-28T01:59:57;101023.38;;;0.93;100.00
54546;BME280;40444;45.184;9.850;2023-01-28T02:02:45;101023.44;;;0.92;100.00
54546;BME280;40444;45.184;9.850;2023-01-28T02:05:17;101019.97;;;0.91;100.00
54546;BME280;40444;45.184;9.850;2023-01-28T02:07:49;101018.09;;;0.93;100.00
54546;BME280;40444;45.184;9.850;2023-01-28T02:10:17;101020.75;;;0.93;100.00
54546;BME280;40444;45.184;9.850;2023-01-28T02:12:52;101026.91;;;0.94;100.00
54546;BME280;40444;45.184;9.850;2023-01-28T02:15:26;101015.47;;;0.93;100.00
54546;BME280;40444;45.184;9.850;2023-01-28T02:17:57;101019.00;;;0.94;100.00
54546;BME280;40444;45.184;9.850;2023-01-28T02:23:35;101023.38;;;0.93;100.00
54546;BME280;40444;45.184;9.850;2023-01-28T02:26:18;101023.53;;;0.90;100.00
54546;BME280;40444;45.184;9.850;2023-01-28T02:29:30;101019.16;;;0.89;100.00
54546;BME280;40444;45.184;9.850;2023-01-28T02:37:42;101025.34;;;0.88;100.00
54546;BME280;40444;45.184;9.850;2023-01-28T02:40:18;101013.88;;;0.89;100.00
54546;BME280;40444;45.184;9.850;2023-01-28T02:42:47;101021.78;;;0.89;100.00
54546;BME280;40444;45.184;9.850;2023-01-28T02:45:22;101025.31;;;0.90;100.00
54546;BME280;40444;45.184;9.850;2023-01-28T02:47:53;101023.38;;;0.93;100.00
54546;BME280;40444;45.184;9.850;2023-01-28T02:50:34;101024.44;;;0.89;100.00
54546;BME280;40444;45.184;9.850;2023-01-28T02:53:17;101028.06;;;0.87;100.00
54546;BME280;40444;45.184;9.850;2023-01-28T03:01:35;101030.91;;;0.82;100.00
54546;BME280;40444;45.184;9.850;2023-01-28T03:04:12;101028.28;;;0.82;100.00
54546;BME280;40444;45.184;9.850;2023-01-28T03:06:48;101031.84;;;0.81;100.00
54546;BME280;40444;45.184;9.850;2023-01-28T03:09:18;101030.19;;;0.79;100.00
54546;BME280;40444;45.184;9.850;2023-01-28T03:12:10;101032.88;;;0.77;100.00
54546;BME280;40444;45.184;9.850;2023-01-28T03:18:06;101038.19;;;0.75;100.00
54546;BME280;40444;45.184;9.850;2023-01-28T03:21:05;101035.56;;;0.75;100.00
54546;BME280;40444;45.184;9.850;2023-01-28T03:23:59;101042.63;;;0.75;100.00
54546;BME280;40444;45.184;9.850;2023-01-28T03:29:42;101045.34;;;0.73;100.00
54546;BME280;40444;45.184;9.850;2023-01-28T03:32:32;101043.56;;;0.74;100.00
54546;BME280;40444;45.184;9.850;2023-01-28T03:35:22;101041.84;;;0.73;100.00
54546;BME280;40444;45.184;9.850;2023-01-28T03:38:10;101044.47;;;0.73;100.00
54546;BME280;40444;45.184;9.850;2023-01-28T03:41:11;101044.47;;;0.73;100.00
54546;BME280;40444;45.184;9.850;2023-01-28T03:43:40;101046.31;;;0.71;100.00
54546;BME280;40444;45.184;9.850;2023-01-28T03:46:09;101049.03;;;0.69;100.00
54546;BME280;40444;45.184;9.850;2023-01-28T03:48:38;101045.47;;;0.70;100.00
54546;BME280;40444;45.184;9.850;2023-01-28T03:51:11;101046.28;;;0.72;100.00
54546;BME280;40444;45.184;9.850;2023-01-28T03:53:39;101045.34;;;0.73;100.00
54546;BME280;40444;45.184;9.850;2023-01-28T03:56:08;101047.06;;;0.74;100.00
54546;BME280;40444;45.184;9.850;2023-01-28T03:58:39;101054.03;;;0.75;100.00
54546;BME280;40444;45.184;9.850;2023-01-28T04:01:20;101052.97;;;0.80;100.00
54546;BME280;40444;45.184;9.850;2023-01-28T04:03:49;101055.63;;;0.80;100.00
54546;BME280;40444;45.184;9.850;2023-01-28T04:06:23;101050.34;;;0.80;100.00
54546;BME280;40444;45.184;9.850;2023-01-28T04:09:10;101049.69;;;0.74;100.00
54546;BME280;40444;45.184;9.850;2023-01-28T04:11:54;101056.63;;;0.77;100.00
54546;BME280;40444;45.184;9.850;2023-01-28T04:14:31;101062.63;;;0.81;100.00
54546;BME280;40444;45.184;9.850;2023-01-28T04:17:07;101064.34;;;0.82;100.00
54546;BME280;40444;45.184;9.850;2023-01-28T04:19:38;101067.03;;;0.80;100.00
54546;BME280;40444;45.184;9.850;2023-01-28T04:22:09;101066.31;;;0.77;100.00
54546;BME280;40444;45.184;9.850;2023-01-28T04:24:39;101071.59;;;0.77;100.00
54546;BME280;40444;45.184;9.850;2023-01-28T04:27:08;101072.44;;;0.77;100.00
54546;BME280;40444;45.184;9.850;2023-01-28T04:29:37;101073.31;;;0.78;100.00
54546;BME280;40444;45.184;9.850;2023-01-28T04:32:26;101074.09;;;0.80;100.00
54546;BME280;40444;45.184;9.850;2023-01-28T04:35:19;101080.19;;;0.82;100.00
54546;BME280;40444;45.184;9.850;2023-01-28T04:37:57;101078.38;;;0.82;100.00
54546;BME280;40444;45.184;9.850;2023-01-28T04:40:31;101086.31;;;0.82;100.00
54546;BME280;40444;45.184;9.850;2023-01-28T04:43:11;101085.44;;;0.82;100.00
54546;BME280;40444;45.184;9.850;2023-01-28T04:46:18;101088.22;;;0.79;100.00
54546;BME280;40444;45.184;9.850;2023-01-28T04:49:22;101097.13;;;0.76;100.00
54546;BME280;40444;45.184;9.850;2023-01-28T04:52:20;101091.84;;;0.76;100.00
54546;BME280;40444;45.184;9.850;2023-01-28T04:55:08;101100.63;;;0.77;100.00
54546;BME280;40444;45.184;9.850;2023-01-28T04:57:37;101100.66;;;0.75;100.00
54546;BME280;40444;45.184;9.850;2023-01-28T05:00:07;101099.88;;;0.73;100.00
54546;BME280;40444;45.184;9.850;2023-01-28T05:02:36;101109.56;;;0.72;100.00
54546;BME280;40444;45.184;9.850;2023-01-28T05:05:05;101103.47;;;0.70;100.00
54546;BME280;40444;45.184;9.850;2023-01-28T05:08:02;101107.13;;;0.68;100.00
54546;BME280;40444;45.184;9.850;2023-01-28T05:10:30;101108.91;;;0.67;100.00
54546;BME280;40444;45.184;9.850;2023-01-28T05:12:59;101108.91;;;0.67;100.00
54546;BME280;40444;45.184;9.850;2023-01-28T05:15:28;101106.38;;;0.64;100.00
54546;BME280;40444;45.184;9.850;2023-01-28T05:17:57;101102.16;;;0.60;100.00
54546;BME280;40444;45.184;9.850;2023-01-28T05:20:28;101110.31;;;0.54;100.00
54546;BME280;40444;45.184;9.850;2023-01-28T05:22:57;101111.41;;;0.48;100.00
54546;BME280;40444;45.184;9.850;2023-01-28T05:25:35;101108.75;;;0.48;100.00
54546;BME280;40444;45.184;9.850;2023-01-28T05:28:04;101105.59;;;0.40;100.00
54546;BME280;40444;45.184;9.850;2023-01-28T05:30:32;101110.59;;;0.24;100.00
54546;BME280;40444;45.184;9.850;2023-01-28T05:33:01;101117.13;;;0.14;100.00
54546;BME280;40444;45.184;9.850;2023-01-28T05:35:30;101109.06;;;0.19;100.00
54546;BME280;40444;45.184;9.850;2023-01-28T05:37:59;101112.66;;;0.16;100.00
54546;BME280;40444;45.184;9.850;2023-01-28T05:40:28;101110.59;;;0.24;100.00
54546;BME280;40444;45.184;9.850;2023-01-28T05:42:56;101114.94;;;0.25;100.00
54546;BME280;40444;45.184;9.850;2023-01-28T05:45:38;101116.53;;;0.30;100.00
54546;BME280;40444;45.184;9.850;2023-01-28T05:48:13;101113.97;;;0.28;100.00
54546;BME280;40444;45.184;9.850;2023-01-28T05:50:49;101121.75;;;0.31;100.00
54546;BME280;40444;45.184;9.850;2023-01-28T05:53:29;101126.28;;;0.28;100.00
54546;BME280;40444;45.184;9.850;2023-01-28T05:55:57;101122.63;;;0.32;100.00
54546;BME280;40444;45.184;9.850;2023-01-28T05:58:27;101122.47;;;0.35;100.00
54546;BME280;40444;45.184;9.850;2023-01-28T06:01:02;101128.50;;;0.38;100.00
54546;BME280;40444;45.184;9.850;2023-01-28T06:03:39;101131.06;;;0.40;100.00
54546;BME280;40444;45.184;9.850;2023-01-28T06:06:06;101134.53;;;0.42;100.00
54546;BME280;40444;45.184;9.850;2023-01-28T06:08:35;101139.88;;;0.40;100.00
54546;BME280;40444;45.184;9.850;2023-01-28T06:11:05;101140.75;;;0.39;100.00
54546;BME280;40444;45.184;9.850;2023-01-28T06:13:34;101146.03;;;0.39;100.00
54546;BME280;40444;45.184;9.850;2023-01-28T06:16:22;101140.81;;;0.38;100.00
54546;BME280;40444;45.184;9.850;2023-01-28T06:19:10;101140.00;;;0.36;100.00
54546;BME280;40444;45.184;9.850;2023-01-28T06:21:39;101147.13;;;0.34;100.00
54546;BME280;40444;45.184;9.850;2023-01-28T06:24:07;101154.13;;;0.35;100.00
54546;BME280;40444;45.184;9.850;2023-01-28T06:26:36;101161.16;;;0.34;100.00
54546;BME280;40444;45.184;9.850;2023-01-28T06:29:06;101161.16;;;0.34;100.00
54546;BME280;40444;45.184;9.850;2023-01-28T06:31:34;101170.00;;;0.33;100.00
54546;BME280;40444;45.184;9.850;2023-01-28T06:34:03;101173.56;;;0.32;100.00
54546;BME280;40444;45.184;9.850;2023-01-28T06:36:32;101170.06;;;0.32;100.00
54546;BME280;40444;45.184;9.850;2023-01-28T06:39:04;101178.84;;;0.32;100.00
54546;BME280;40444;45.184;9.850;2023-01-28T06:41:32;101175.34;;;0.32;100.00
54546;BME280;40444;45.184;9.850;2023-01-28T06:44:01;101184.13;;;0.31;100.00
54546;BME280;40444;45.184;9.850;2023-01-28T06:46:29;101184.13;;;0.31;100.00
54546;BME280;40444;45.184;9.850;2023-01-28T06:48:57;101180.72;;;0.29;100.00
54546;BME280;40444;45.184;9.850;2023-01-28T06:51:26;101197.47;;;0.28;100.00
54546;BME280;40444;45.184;9.850;2023-01-28T06:53:54;101198.34;;;0.27;100.00
54546;BME280;40444;45.184;9.850;2023-01-28T06:56:23;101189.59;;;0.26;100.00
54546;BME280;40444;45.184;9.850;2023-01-28T06:58:51;101198.41;;;0.25;100.00
54546;BME280;40444;45.184;9.850;2023-01-28T07:01:19;101208.03;;;0.26;100.00
54546;BME280;40444;45.184;9.850;2023-01-28T07:03:48;101209.88;;;0.24;100.00
54546;BME280;40444;45.184;9.850;2023-01-28T07:06:16;101214.22;;;0.25;100.00
54546;BME280;40444;45.184;9.850;2023-01-28T07:08:44;101210.66;;;0.26;100.00
54546;BME280;40444;45.184;9.850;2023-01-28T07:11:14;101208.88;;;0.27;100.00
54546;BME280;40444;45.184;9.850;2023-01-28T07:13:43;101219.50;;;0.25;100.00
54546;BME280;40444;45.184;9.850;2023-01-28T07:16:12;101221.38;;;0.21;100.00
54546;BME280;40444;45.184;9.850;2023-01-28T07:18:40;101222.41;;;0.17;100.00
54546;BME280;40444;45.184;9.850;2023-01-28T07:21:09;101227.69;;;0.17;100.00
54546;BME280;40444;45.184;9.850;2023-01-28T07:23:38;101229.34;;;0.20;100.00
54546;BME280;40444;45.184;9.850;2023-01-28T18:11:38;101441.56;;;3.59;100.00
54546;BME280;40444;45.184;9.850;2023-01-28T18:14:07;101440.66;;;3.77;99.28
54546;BME280;40444;45.184;9.850;2023-01-28T18:16:36;101445.03;;;3.97;98.26
54546;BME280;40444;45.184;9.850;2023-01-28T18:19:05;101449.44;;;4.16;96.04
54546;BME280;40444;45.184;9.850;2023-01-28T18:21:37;101445.00;;;4.34;93.26
54546;BME280;40444;45.184;9.850;2023-01-28T18:24:21;101449.63;;;4.47;92.73
54546;BME280;40444;45.184;9.850;2023-01-28T18:26:52;101443.75;;;4.58;91.94
54546;BME280;40444;45.184;9.850;2023-01-28T18:29:27;101444.31;;;4.65;90.90
54546;BME280;40444;45.184;9.850;2023-01-28T18:31:57;101444.84;;;4.71;90.47
54546;BME280;40444;45.184;9.850;2023-01-28T18:34:27;101451.84;;;4.72;90.45
54546;BME280;40444;45.184;9.850;2023-01-28T18:36:57;101457.97;;;4.74;89.91
54546;BME280;40444;45.184;9.850;2023-01-28T18:39:27;101452.56;;;4.76;89.76
54546;BME280;40444;45.184;9.850;2023-01-28T18:41:58;101461.38;;;4.76;90.44
54546;BME280;40444;45.184;9.850;2023-01-28T18:44:28;101462.47;;;4.72;90.85
54546;BME280;40444;45.184;9.850;2023-01-28T18:47:04;101473.50;;;4.65;91.59
54546;BME280;40444;45.184;9.850;2023-01-28T18:49:33;101475.75;;;4.55;90.96
54546;BME280;40444;45.184;9.850;2023-01-28T18:52:01;101473.66;;;4.44;91.42
54546;BME280;40444;45.184;9.850;2023-01-28T18:54:30;101478.56;;;4.35;91.52
54546;BME280;40444;45.184;9.850;2023-01-28T18:56:59;101480.72;;;4.26;91.75
54546;BME280;40444;45.184;9.850;2023-01-28T18:59:28;101483.59;;;4.22;91.62
54546;BME280;40444;45.184;9.850;2023-01-28T19:01:56;101488.28;;;4.17;92.70
54546;BME280;40444;45.184;9.850;2023-01-28T19:04:24;101492.94;;;4.12;94.20
54546;BME280;40444;45.184;9.850;2023-01-28T19:06:56;101493.16;;;4.07;93.24
54546;BME280;40444;45.184;9.850;2023-01-28T19:09:24;101493.31;;;4.04;93.42
54546;BME280;40444;45.184;9.850;2023-01-28T19:11:53;101505.81;;;4.02;93.46
54546;BME280;40444;45.184;9.850;2023-01-28T19:14:21;101496.19;;;3.99;93.72
54546;BME280;40444;45.184;9.850;2023-01-28T19:16:49;101493.75;;;3.95;93.30
54546;BME280;40444;45.184;9.850;2023-01-28T19:19:17;101502.91;;;3.88;93.91
54546;BME280;40444;45.184;9.850;2023-01-28T19:21:46;101505.75;;;3.85;94.02
54546;BME280;40444;45.184;9.850;2023-01-28T19:24:14;101506.72;;;3.82;93.86
54546;BME280;40444;45.184;9.850;2023-01-28T19:26:42;101507.75;;;3.79;94.82
54546;BME280;40444;45.184;9.850;2023-01-28T19:29:12;101510.59;;;3.75;94.17
54546;BME280;40444;45.184;9.850;2023-01-28T19:31:42;101515.25;;;3.70;94.79
54546;BME280;40444;45.184;9.850;2023-01-28T19:34:11;101508.31;;;3.67;95.33
54546;BME280;40444;45.184;9.850;2023-01-28T19:36:39;101519.03;;;3.64;95.86
54546;BME280;40444;45.184;9.850;2023-01-28T19:39:10;101515.75;;;3.59;95.69
54546;BME280;40444;45.184;9.850;2023-01-28T19:41:39;101519.47;;;3.55;96.07
54546;BME280;40444;45.184;9.850;2023-01-28T19:44:08;101524.13;;;3.50;96.20
54546;BME280;40444;45.184;9.850;2023-01-28T19:46:37;101524.34;;;3.45;95.90
54546;BME280;40444;45.184;9.850;2023-01-28T19:49:07;101522.66;;;3.43;97.46
54546;BME280;40444;45.184;9.850;2023-01-28T19:51:36;101526.34;;;3.40;97.57
54546;BME280;40444;45.184;9.850;2023-01-28T19:54:04;101539.56;;;3.40;98.04
54546;BME280;40444;45.184;9.850;2023-01-28T19:56:33;101536.06;;;3.40;98.25
54546;BME280;40444;45.184;9.850;2023-01-28T19:59:03;101537.91;;;3.38;98.54
54546;BME280;40444;45.184;9.850;2023-01-28T20:01:31;101534.50;;;3.36;98.67
54546;BME280;40444;45.184;9.850;2023-01-28T20:04:01;101542.56;;;3.33;98.74
54546;BME280;40444;45.184;9.850;2023-01-28T20:06:30;101546.19;;;3.30;99.15
54546;BME280;40444;45.184;9.850;2023-01-28T20:09:03;101543.75;;;3.25;99.59
54546;BME280;40444;45.184;9.850;2023-01-28T20:11:34;101546.75;;;3.18;98.31
54546;BME280;40444;45.184;9.850;2023-01-28T20:14:02;101554.94;;;3.12;97.75
54546;BME280;40444;45.184;9.850;2023-01-28T20:16:32;101547.34;;;3.04;98.35
54546;BME280;40444;45.184;9.850;2023-01-28T20:19:03;101551.97;;;2.99;99.01
54546;BME280;40444;45.184;9.850;2023-01-28T20:21:33;101562.69;;;2.96;99.76
54546;BME280;40444;45.184;9.850;2023-01-28T20:24:02;101562.94;;;2.90;99.79
54546;BME280;40444;45.184;9.850;2023-01-28T20:26:34;101567.66;;;2.83;99.93
54546;BME280;40444;45.184;9.850;2023-01-28T20:29:08;101564.25;;;2.79;100.00
54546;BME280;40444;45.184;9.850;2023-01-28T20:31:38;101571.47;;;2.76;100.00
54546;BME280;40444;45.184;9.850;2023-01-28T20:34:13;101569.94;;;2.70;100.00
54546;BME280;40444;45.184;9.850;2023-01-28T20:36:42;101578.06;;;2.66;100.00
54546;BME280;40444;45.184;9.850;2023-01-28T20:39:11;101572.19;;;2.59;100.00
54546;BME280;40444;45.184;9.850;2023-01-28T20:41:40;101579.41;;;2.54;100.00
54546;BME280;40444;45.184;9.850;2023-01-28T20:44:08;101567.31;;;2.48;100.00
54546;BME280;40444;45.184;9.850;2023-01-28T20:46:37;101576.38;;;2.43;100.00
54546;BME280;40444;45.184;9.850;2023-01-28T20:49:05;101588.78;;;2.41;100.00
54546;BME280;40444;45.184;9.850;2023-01-28T20:51:34;101592.41;;;2.38;100.00
54546;BME280;40444;45.184;9.850;2023-01-28T20:54:03;101587.22;;;2.35;100.00
54546;BME280;40444;45.184;9.850;2023-01-28T20:56:32;101593.56;;;2.31;100.00
54546;BME280;40444;45.184;9.850;2023-01-28T20:59:04;101602.44;;;2.30;100.00
54546;BME280;40444;45.184;9.850;2023-01-28T21:01:33;101606.97;;;2.26;100.00
54546;BME280;40444;45.184;9.850;2023-01-28T21:04:04;101604.47;;;2.23;100.00
54546;BME280;40444;45.184;9.850;2023-01-28T21:06:32;101613.38;;;2.21;100.00
54546;BME280;40444;45.184;9.850;2023-01-28T21:09:02;101609.97;;;2.17;100.00
54546;BME280;40444;45.184;9.850;2023-01-28T21:11:31;101615.38;;;2.14;100.00
54546;BME280;40444;45.184;9.850;2023-01-28T21:13:59;101613.66;;;2.13;100.00
54546;BME280;40444;45.184;9.850;2023-01-28T21:16:27;101623.44;;;2.11;100.00
54546;BME280;40444;45.184;9.850;2023-01-28T21:18:56;101624.56;;;2.04;100.00
54546;BME280;40444;45.184;9.850;2023-01-28T21:21:26;101625.56;;;2.01;100.00
54546;BME280;40444;45.184;9.850;2023-01-28T21:23:58;101628.25;;;2.00;100.00
54546;BME280;40444;45.184;9.850;2023-01-28T21:26:28;101624.84;;;1.96;100.00
54546;BME280;40444;45.184;9.850;2023-01-28T21:28:56;101624.13;;;1.93;100.00
54546;BME280;40444;45.184;9.850;2023-01-28T21:31:25;101640.03;;;1.91;100.00
54546;BME280;40444;45.184;9.850;2023-01-28T21:33:56;101635.66;;;1.90;100.00
54546;BME280;40444;45.184;9.850;2023-01-28T21:36:25;101647.25;;;1.88;100.00
54546;BME280;40444;45.184;9.850;2023-01-28T21:38:58;101635.91;;;1.84;100.00
54546;BME280;40444;45.184;9.850;2023-01-28T21:41:28;101642.06;;;1.85;100.00
54546;BME280;40444;45.184;9.850;2023-01-28T21:43:57;101653.56;;;1.84;100.00
54546;BME280;40444;45.184;9.850;2023-01-28T21:46:29;101656.13;;;1.85;100.00
54546;BME280;40444;45.184;9.850;2023-01-28T21:49:02;101651.94;;;1.80;100.00
54546;BME280;40444;45.184;9.850;2023-01-28T21:51:33;101656.28;;;1.81;100.00
54546;BME280;40444;45.184;9.850;2023-01-28T21:54:15;101654.75;;;1.75;100.00
54546;BME280;40444;45.184;9.850;2023-01-28T21:56:47;101658.41;;;1.71;100.00
54546;BME280;40444;45.184;9.850;2023-01-28T21:59:17;101661.06;;;1.71;100.00
54546;BME280;40444;45.184;9.850;2023-01-28T22:02:08;101663.78;;;1.68;100.00
54546;BME280;40444;45.184;9.850;2023-01-28T22:04:41;101669.94;;;1.68;100.00
54546;BME280;40444;45.184;9.850;2023-01-28T22:07:12;101669.06;;;1.68;100.00
54546;BME280;40444;45.184;9.850;2023-01-28T22:09:40;101668.22;;;1.67;100.00
54546;BME280;40444;45.184;9.850;2023-01-28T22:12:10;101677.00;;;1.68;100.00
54546;BME280;40444;45.184;9.850;2023-01-28T22:14:39;101677.88;;;1.68;100.00
54546;BME280;40444;45.184;9.850;2023-01-28T22:17:08;101683.16;;;1.68;100.00
54546;BME280;40444;45.184;9.850;2023-01-28T22:19:39;101683.16;;;1.68;100.00
54546;BME280;40444;45.184;9.850;2023-01-28T22:22:07;101685.78;;;1.68;100.00
54546;BME280;40444;45.184;9.850;2023-01-28T22:24:36;101686.81;;;1.64;100.00
54546;BME280;40444;45.184;9.850;2023-01-28T22:27:04;101678.94;;;1.63;100.00
54546;BME280;40444;45.184;9.850;2023-01-28T22:29:33;101688.56;;;1.65;100.00
54546;BME280;40444;45.184;9.850;2023-01-28T22:32:01;101693.84;;;1.65;100.00
54546;BME280;40444;45.184;9.850;2023-01-28T22:34:31;101700.09;;;1.63;100.00
54546;BME280;40444;45.184;9.850;2023-01-28T22:37:00;101700.25;;;1.58;100.00
54546;BME280;40444;45.184;9.850;2023-01-28T22:39:29;101695.34;;;1.47;100.00
54546;BME280;40444;45.184;9.850;2023-01-28T22:41:58;101698.09;;;1.44;100.00
54546;BME280;40444;45.184;9.850;2023-01-28T22:44:27;101699.88;;;1.44;100.00
54546;BME280;40444;45.184;9.850;2023-01-28T22:46:56;101704.28;;;1.43;100.00
54546;BME280;40444;45.184;9.850;2023-01-28T22:49:24;101711.53;;;1.37;100.00
54546;BME280;40444;45.184;9.850;2023-01-28T22:51:53;101698.78;;;1.23;100.00
54546;BME280;40444;45.184;9.850;2023-01-28T22:54:22;101705.84;;;1.22;100.00
54546;BME280;40444;45.184;9.850;2023-01-28T22:56:51;101706.22;;;1.12;100.00
54546;BME280;40444;45.184;9.850;2023-01-28T22:59:19;101701.97;;;1.08;100.00
54546;BME280;40444;45.184;9.850;2023-01-28T23:01:48;101705.34;;;1.11;100.00
54546;BME280;40444;45.184;9.850;2023-01-28T23:04:17;101709.59;;;1.15;100.00
54546;BME280;40444;45.184;9.850;2023-01-28T23:06:45;101706.94;;;1.17;100.00
54546;BME280;40444;45.184;9.850;2023-01-28T23:09:14;101706.88;;;1.18;100.00
54546;BME280;40444;45.184;9.850;2023-01-28T23:11:43;101712.91;;;1.22;100.00
54546;BME280;40444;45.184;9.850;2023-01-28T23:14:11;101709.34;;;1.23;100.00
54546;BME280;40444;45.184;9.850;2023-01-28T23:16:58;101712.00;;;1.23;100.00
54546;BME280;40444;45.184;9.850;2023-01-28T23:19:45;101707.63;;;1.22;100.00
54546;BME280;40444;45.184;9.850;2023-01-28T23:22:33;101710.31;;;1.20;100.00
54546;BME280;40444;45.184;9.850;2023-01-28T23:25:22;101708.94;;;1.09;100.00
54546;BME280;40444;45.184;9.850;2023-01-28T23:27:50;101710.88;;;1.04;100.00
54546;BME280;40444;45.184;9.850;2023-01-28T23:30:19;101708.72;;;0.88;100.00
54546;BME280;40444;45.184;9.850;2023-01-28T23:32:55;101710.56;;;0.85;100.00
54546;BME280;40444;45.184;9.850;2023-01-28T23:35:24;101712.22;;;0.89;100.00
54546;BME280;40444;45.184;9.850;2023-01-28T23:37:53;101714.84;;;0.89;100.00
54546;BME280;40444;45.184;9.850;2023-01-28T23:40:22;101721.75;;;0.93;100.00
54546;BME280;40444;45.184;9.850;2023-01-28T23:42:52;101721.69;;;0.96;100.00
54546;BME280;40444;45.184;9.850;2023-01-28T23:45:21;101717.16;;;0.99;100.00
54546;BME280;40444;45.184;9.850;2023-01-28T23:47:50;101715.31;;;1.03;100.00
54546;BME280;40444;45.184;9.850;2023-01-28T23:50:19;101714.31;;;1.06;100.00
54546;BME280;40444;45.184;9.850;2023-01-28T23:52:48;101717.81;;;1.06;100.00
54546;BME280;40444;45.184;9.850;2023-01-28T23:55:16;101718.75;;;1.05;100.00
54546;BME280;40444;45.184;9.850;2023-01-28T23:57:44;101723.22;;;1.03;100.00
